Time;durP1;ratioP1;P1;durP2;ratioP2;P2;SDS_P1;SDS_P2;PMS_P1;PMS_P2;Temp;Humidity;BMP_temperature;BMP_pressure;BME280_temperature;BME280_humidity;BME280_pressure;Samples;Min_cycle;Max_cycle;Signal;HPM_P1;HPM_P2
2022/12/28 00:01:18;;;;;;;2.30;1.48;;;3.30;99.90;;;;;;4912677;29;20032;-70
2022/12/28 00:03:45;;;;;;;7.70;2.58;;;3.20;99.90;;;;;;4915687;29;20118;-70
2022/12/28 00:06:12;;;;;;;7.60;3.30;;;3.20;99.90;;;;;;4928080;29;20031;-70
2022/12/28 00:08:37;;;;;;;4.45;3.05;;;3.20;99.90;;;;;;4916598;29;20032;-70
2022/12/28 00:11:17;;;;;;;12.82;2.63;;;3.20;99.90;;;;;;4916358;29;20381;-70
2022/12/28 00:13:43;;;;;;;7.18;2.97;;;3.30;99.90;;;;;;4909414;29;20074;-70
2022/12/28 00:16:29;;;;;;;6.10;3.30;;;3.30;99.90;;;;;;4918165;29;20071;-70
2022/12/28 00:18:57;;;;;;;3.45;2.30;;;3.30;99.90;;;;;;4915668;29;20040;-70
2022/12/28 00:21:24;;;;;;;4.85;2.58;;;3.30;99.90;;;;;;4914902;29;20043;-70
2022/12/28 00:23:51;;;;;;;8.60;3.00;;;3.30;99.90;;;;;;4926787;29;20032;-70
2022/12/28 00:26:18;;;;;;;6.40;2.88;;;3.30;99.90;;;;;;4932790;29;20059;-69
2022/12/28 00:28:44;;;;;;;5.38;2.20;;;3.30;99.90;;;;;;4916972;29;20562;-70
2022/12/28 00:31:11;;;;;;;4.40;1.90;;;3.30;99.90;;;;;;4915781;29;20095;-70
2022/12/28 00:33:37;;;;;;;5.28;2.53;;;3.30;99.90;;;;;;4915859;29;20493;-70
2022/12/28 00:36:04;;;;;;;7.38;3.50;;;3.30;99.90;;;;;;4933607;29;20040;-70
2022/12/28 00:38:30;;;;;;;8.52;4.25;;;3.30;99.90;;;;;;4916465;29;20087;-70
2022/12/28 00:41:00;;;;;;;9.10;2.65;;;3.30;99.90;;;;;;4916873;29;20071;-70
2022/12/28 00:43:26;;;;;;;4.40;2.70;;;3.30;99.90;;;;;;4932267;29;20035;-70
2022/12/28 00:45:52;;;;;;;5.10;2.85;;;3.30;99.90;;;;;;4912091;29;20047;-70
2022/12/28 00:48:18;;;;;;;13.88;3.17;;;3.40;99.90;;;;;;4924589;29;20489;-69
2022/12/28 00:50:44;;;;;;;3.40;2.42;;;3.40;99.90;;;;;;4919887;29;20115;-69
2022/12/28 00:53:11;;;;;;;5.65;2.78;;;3.50;99.90;;;;;;4903464;29;20053;-70
2022/12/28 00:55:37;;;;;;;12.18;3.35;;;3.50;99.90;;;;;;4915065;29;20099;-70
2022/12/28 00:58:04;;;;;;;5.25;2.75;;;3.40;99.90;;;;;;4903195;29;20890;-69
2022/12/28 01:00:33;;;;;;;10.65;4.20;;;3.50;99.90;;;;;;4917006;29;20469;-69
2022/12/28 01:02:59;;;;;;;6.20;2.28;;;3.50;99.90;;;;;;4917214;29;20051;-69
2022/12/28 01:05:25;;;;;;;5.05;2.88;;;3.50;99.90;;;;;;4913349;29;20027;-70
2022/12/28 01:07:51;;;;;;;4.38;2.63;;;3.50;99.90;;;;;;4920751;29;20041;-70
2022/12/28 01:10:17;;;;;;;6.07;3.33;;;3.50;99.90;;;;;;4914353;29;20044;-70
2022/12/28 01:12:43;;;;;;;9.18;3.58;;;3.60;99.90;;;;;;4912927;29;20027;-70
2022/12/28 01:15:11;;;;;;;8.30;2.55;;;3.60;99.90;;;;;;4928478;23;20044;-70
2022/12/28 01:17:38;;;;;;;5.82;3.72;;;3.60;99.90;;;;;;4929856;29;20123;-70
2022/12/28 01:20:05;;;;;;;6.07;3.33;;;3.60;99.90;;;;;;4910053;29;20032;-70
2022/12/28 01:22:31;;;;;;;9.13;4.07;;;3.70;99.90;;;;;;4916241;29;20098;-70
2022/12/28 01:24:56;;;;;;;7.85;4.57;;;3.70;99.90;;;;;;4909307;29;20044;-70
2022/12/28 01:27:22;;;;;;;3.90;3.25;;;3.70;99.90;;;;;;4931787;29;20027;-70
2022/12/28 01:29:48;;;;;;;7.90;3.38;;;3.80;99.90;;;;;;4931699;29;20050;-70
2022/12/28 01:32:14;;;;;;;5.05;2.42;;;3.80;99.90;;;;;;4933279;29;20036;-70
2022/12/28 01:34:39;;;;;;;2.50;1.95;;;3.80;99.90;;;;;;4932290;29;20065;-70
2022/12/28 01:37:05;;;;;;;12.63;4.85;;;3.80;99.90;;;;;;4933252;29;20084;-70
2022/12/28 01:39:31;;;;;;;6.25;3.17;;;3.90;99.90;;;;;;4932683;29;20038;-70
2022/12/28 01:41:56;;;;;;;7.70;4.60;;;3.90;99.90;;;;;;4915272;29;20028;-70
2022/12/28 01:44:22;;;;;;;6.63;2.60;;;3.90;99.90;;;;;;4932260;29;20067;-70
2022/12/28 01:47:03;;;;;;;10.05;4.32;;;3.90;99.90;;;;;;4932889;29;20036;-70
2022/12/28 01:49:47;;;;;;;13.38;2.85;;;3.90;99.90;;;;;;4932613;29;20087;-70
2022/12/28 01:52:23;;;;;;;4.30;2.88;;;4.00;99.90;;;;;;4906408;29;20455;-70
2022/12/28 01:55:08;;;;;;;11.88;3.42;;;4.00;99.90;;;;;;4921537;29;20142;-70
2022/12/28 01:58:04;;;;;;;12.43;3.47;;;4.00;99.90;;;;;;4931999;29;20030;-70
2022/12/28 02:00:30;;;;;;;6.63;2.67;;;4.00;99.90;;;;;;4930971;29;20334;-70
2022/12/28 02:03:08;;;;;;;4.45;2.67;;;4.10;99.90;;;;;;4912492;29;20060;-70
2022/12/28 02:05:38;;;;;;;4.32;2.25;;;4.10;99.90;;;;;;4902860;29;20043;-70
2022/12/28 02:08:30;;;;;;;6.00;3.07;;;4.20;99.90;;;;;;4914850;29;20027;-70
2022/12/28 02:10:56;;;;;;;3.90;2.08;;;4.30;99.90;;;;;;4931650;29;20110;-70
2022/12/28 02:13:23;;;;;;;7.63;2.95;;;4.30;99.90;;;;;;4934565;29;20032;-70
2022/12/28 02:15:50;;;;;;;4.78;3.25;;;4.40;99.90;;;;;;4934236;29;20548;-70
2022/12/28 02:18:18;;;;;;;4.93;2.72;;;4.50;99.90;;;;;;4936332;29;20110;-69
2022/12/28 02:21:09;;;;;;;5.20;3.15;;;4.60;99.90;;;;;;4936135;29;20064;-70
2022/12/28 02:23:49;;;;;;;4.93;2.60;;;4.50;99.90;;;;;;4934967;29;20032;-69
2022/12/28 02:26:49;;;;;;;9.82;4.13;;;4.60;99.90;;;;;;4915263;29;20059;-70
2022/12/28 02:29:59;;;;;;;3.20;2.55;;;4.60;99.90;;;;;;4906008;29;20035;-70
2022/12/28 02:32:45;;;;;;;4.00;2.55;;;4.60;99.90;;;;;;4913931;29;20048;-69
2022/12/28 02:35:37;;;;;;;6.03;3.17;;;4.70;99.90;;;;;;4935807;29;20072;-70
2022/12/28 02:38:27;;;;;;;4.40;1.95;;;4.70;99.90;;;;;;4934741;29;20044;-70
2022/12/28 02:41:00;;;;;;;7.85;3.78;;;4.70;99.90;;;;;;4934470;29;20036;-70
2022/12/28 02:43:26;;;;;;;2.47;2.10;;;4.70;99.90;;;;;;4934254;29;20074;-70
2022/12/28 02:51:46;;;;;;;7.90;2.90;;;4.70;99.90;;;;;;4931369;29;20039;-70
2022/12/28 02:58:05;;;;;;;4.93;2.40;;;4.80;99.90;;;;;;4931066;29;20063;-70
2022/12/28 03:01:15;;;;;;;11.75;2.25;;;4.70;99.90;;;;;;4935134;29;20123;-70
2022/12/28 03:03:56;;;;;;;8.18;2.35;;;4.70;99.90;;;;;;4928644;29;20140;-70
2022/12/28 03:09:34;;;;;;;7.60;1.73;;;4.60;99.90;;;;;;4920337;29;20091;-71
2022/12/28 03:12:19;;;;;;;4.90;2.53;;;4.50;99.90;;;;;;4917551;29;20028;-70
2022/12/28 03:15:03;;;;;;;2.97;2.15;;;4.50;99.90;;;;;;4933083;29;20043;-71
2022/12/28 03:31:29;;;;;;;5.53;2.58;;;4.60;99.90;;;;;;4929567;29;20042;-69
2022/12/28 03:34:05;;;;;;;3.83;2.35;;;4.60;99.90;;;;;;4933174;29;20095;-69
2022/12/28 03:36:52;;;;;;;5.65;2.58;;;4.70;99.90;;;;;;4914655;29;20090;-69
2022/12/28 03:39:35;;;;;;;13.30;2.95;;;4.70;99.90;;;;;;4919660;29;20063;-69
2022/12/28 03:45:34;;;;;;;4.55;2.50;;;4.80;99.90;;;;;;4933336;29;20050;-70
2022/12/28 03:48:02;;;;;;;3.05;2.28;;;4.70;99.90;;;;;;4933396;29;20480;-70
2022/12/28 03:50:30;;;;;;;6.45;2.85;;;4.70;99.90;;;;;;4917436;29;20062;-70
2022/12/28 03:52:57;;;;;;;5.45;1.98;;;4.70;99.90;;;;;;4925345;29;20047;-69
2022/12/28 03:55:24;;;;;;;4.38;2.40;;;4.70;99.90;;;;;;4933676;29;20031;-70
2022/12/28 03:57:50;;;;;;;4.57;2.80;;;4.70;99.90;;;;;;4933016;29;20099;-70
2022/12/28 04:00:16;;;;;;;6.43;2.25;;;4.80;99.90;;;;;;4932580;29;20448;-70
2022/12/28 04:02:42;;;;;;;10.23;2.50;;;4.80;99.90;;;;;;4933039;29;20377;-70
2022/12/28 04:05:08;;;;;;;5.22;1.98;;;4.80;99.90;;;;;;4933658;29;20035;-70
2022/12/28 04:07:34;;;;;;;5.65;2.17;;;4.90;99.90;;;;;;4934294;29;20311;-70
2022/12/28 04:09:59;;;;;;;4.00;2.13;;;4.90;99.90;;;;;;4932832;29;20067;-70
2022/12/28 04:12:25;;;;;;;4.65;2.03;;;4.90;99.90;;;;;;4932982;29;20099;-70
2022/12/28 04:14:51;;;;;;;6.60;2.80;;;4.90;99.90;;;;;;4931776;29;20035;-70
2022/12/28 04:17:17;;;;;;;9.82;2.75;;;4.90;99.90;;;;;;4933050;29;20486;-70
2022/12/28 04:19:42;;;;;;;7.03;2.80;;;4.90;99.90;;;;;;4934056;29;20044;-70
2022/12/28 04:22:08;;;;;;;4.78;2.22;;;4.90;99.90;;;;;;4933955;29;20019;-70
2022/12/28 04:24:33;;;;;;;8.65;2.25;;;4.90;99.90;;;;;;4933486;29;20032;-70
2022/12/28 04:26:59;;;;;;;12.18;2.47;;;4.80;99.90;;;;;;4933571;29;20051;-70
2022/12/28 04:29:25;;;;;;;4.30;2.25;;;4.90;99.90;;;;;;4932506;29;20051;-70
2022/12/28 04:31:51;;;;;;;2.20;1.52;;;4.80;99.90;;;;;;4915076;29;20099;-70
2022/12/28 04:34:17;;;;;;;4.07;2.13;;;4.80;99.90;;;;;;4931798;29;20543;-70
2022/12/28 04:36:42;;;;;;;16.35;2.83;;;4.80;99.90;;;;;;4930792;29;20122;-70
2022/12/28 04:39:08;;;;;;;2.22;1.63;;;4.80;99.90;;;;;;4933374;29;20509;-69
2022/12/28 04:41:34;;;;;;;4.63;2.35;;;4.80;99.90;;;;;;4913673;29;20821;-69
2022/12/28 04:44:00;;;;;;;3.22;2.13;;;4.90;99.90;;;;;;4915334;29;20589;-69
2022/12/28 04:46:25;;;;;;;9.35;2.50;;;4.80;99.90;;;;;;4913785;29;20047;-70
2022/12/28 04:48:51;;;;;;;3.10;1.75;;;4.90;99.90;;;;;;4931727;29;20159;-70
2022/12/28 04:51:26;;;;;;;3.30;1.73;;;4.90;99.90;;;;;;4916831;29;20110;-69
2022/12/28 04:53:53;;;;;;;2.45;1.90;;;4.90;99.90;;;;;;4932842;29;20032;-69
2022/12/28 04:56:21;;;;;;;4.60;1.95;;;4.90;99.90;;;;;;4927521;29;20530;-69
2022/12/28 04:58:47;;;;;;;3.92;2.10;;;4.90;99.90;;;;;;4931822;29;20063;-69
2022/12/28 05:01:17;;;;;;;3.90;2.22;;;5.00;99.90;;;;;;4910356;29;20031;-70
2022/12/28 05:03:45;;;;;;;8.27;2.58;;;4.90;99.90;;;;;;4932139;29;20039;-70
2022/12/28 05:06:17;;;;;;;10.77;2.65;;;4.90;99.90;;;;;;4922340;29;20438;-69
2022/12/28 05:08:44;;;;;;;3.03;2.13;;;4.90;99.90;;;;;;4929527;29;20070;-70
2022/12/28 05:11:17;;;;;;;3.80;2.38;;;4.90;99.90;;;;;;4932803;29;20027;-69
2022/12/28 05:13:43;;;;;;;3.92;2.15;;;4.90;99.90;;;;;;4931842;29;20036;-69
2022/12/28 05:16:12;;;;;;;4.07;2.22;;;4.80;99.90;;;;;;4931020;29;20039;-70
2022/12/28 05:18:38;;;;;;;13.38;1.92;;;4.80;99.90;;;;;;4933581;29;20063;-69
2022/12/28 05:21:08;;;;;;;3.17;1.92;;;4.80;99.90;;;;;;4931682;29;20031;-69
2022/12/28 05:23:36;;;;;;;3.35;2.40;;;4.80;99.90;;;;;;4932024;29;20566;-69
2022/12/28 05:26:03;;;;;;;1.95;1.30;;;4.80;99.90;;;;;;4915185;29;20040;-69
2022/12/28 05:28:29;;;;;;;3.75;1.80;;;4.80;99.90;;;;;;4920645;29;20063;-69
2022/12/28 05:31:04;;;;;;;4.13;1.50;;;4.80;99.90;;;;;;4932605;29;20135;-70
2022/12/28 05:33:33;;;;;;;9.52;1.80;;;4.80;99.90;;;;;;4904855;29;20562;-69
2022/12/28 05:36:09;;;;;;;4.38;1.40;;;4.80;99.90;;;;;;4925395;29;20043;-69
2022/12/28 05:38:35;;;;;;;1.88;1.25;;;4.80;99.90;;;;;;4931894;29;20131;-70
2022/12/28 05:41:17;;;;;;;2.00;1.20;;;4.80;99.90;;;;;;4931300;29;20091;-70
2022/12/28 05:43:43;;;;;;;;;;;4.90;99.90;;;;;;4933397;29;20044;-70
2022/12/28 05:46:25;;;;;;;1.83;1.40;;;4.90;99.90;;;;;;4906319;29;19990;-70
2022/12/28 05:48:51;;;;;;;4.18;2.22;;;4.90;99.90;;;;;;4919567;29;20554;-70
2022/12/28 05:51:20;;;;;;;5.25;2.60;;;5.00;99.90;;;;;;4936824;29;20036;-70
2022/12/28 05:53:46;;;;;;;4.28;1.58;;;5.00;99.90;;;;;;4935282;29;20044;-70
2022/12/28 05:56:24;;;;;;;2.58;1.75;;;5.00;99.90;;;;;;4936004;29;20058;-70
2022/12/28 05:58:55;;;;;;;1.38;1.00;;;5.00;99.90;;;;;;4935049;29;20087;-69
2022/12/28 06:01:25;;;;;;;1.95;1.15;;;5.00;99.90;;;;;;4914498;29;20024;-70
2022/12/28 06:03:58;;;;;;;1.10;1.00;;;5.10;99.90;;;;;;4918601;29;20052;-68
2022/12/28 06:06:24;;;;;;;2.92;2.10;;;5.10;99.90;;;;;;4930974;29;20024;-70
2022/12/28 06:08:50;;;;;;;4.28;2.05;;;5.00;99.90;;;;;;4934183;29;20865;-70
2022/12/28 06:11:19;;;;;;;2.75;1.35;;;5.10;99.90;;;;;;4933302;29;20042;-72
2022/12/28 06:13:45;;;;;;;1.88;1.35;;;5.00;99.90;;;;;;4908753;29;20038;-69
2022/12/28 06:16:21;;;;;;;3.88;2.50;;;5.10;99.90;;;;;;4934309;29;20511;-72
2022/12/28 06:18:48;;;;;;;6.03;1.25;;;5.10;99.90;;;;;;4921198;29;20047;-71
2022/12/28 06:21:23;;;;;;;3.25;1.17;;;5.10;99.90;;;;;;4913281;29;20028;-71
2022/12/28 06:23:49;;;;;;;4.25;1.55;;;5.10;99.90;;;;;;4918779;29;20038;-71
2022/12/28 06:26:19;;;;;;;2.30;1.42;;;5.10;99.90;;;;;;4909790;29;20138;-71
2022/12/28 06:28:45;;;;;;;4.03;1.45;;;5.20;99.90;;;;;;4916864;29;20028;-71
2022/12/28 06:31:21;;;;;;;2.35;0.80;;;5.20;99.90;;;;;;4935738;29;20127;-71
2022/12/28 06:33:49;;;;;;;5.72;1.35;;;5.20;99.90;;;;;;4935625;29;20027;-71
2022/12/28 06:36:19;;;;;;;3.17;1.58;;;5.20;99.90;;;;;;4935257;29;20107;-70
2022/12/28 06:38:45;;;;;;;6.25;1.77;;;5.20;99.90;;;;;;4936151;29;20035;-70
2022/12/28 06:41:13;;;;;;;4.82;1.55;;;5.10;99.90;;;;;;4934485;29;20035;-69
2022/12/28 06:43:40;;;;;;;1.45;0.90;;;5.20;99.90;;;;;;4916708;29;20043;-69
2022/12/28 06:46:06;;;;;;;10.25;1.98;;;5.20;99.90;;;;;;4934017;29;20043;-69
2022/12/28 06:48:33;;;;;;;4.90;1.52;;;5.20;99.90;;;;;;4916304;29;20035;-68
2022/12/28 06:51:15;;;;;;;1.23;0.95;;;5.30;99.90;;;;;;4932136;29;20067;-69
2022/12/28 06:53:42;;;;;;;2.05;1.30;;;5.20;99.90;;;;;;4931667;29;20483;-68
2022/12/28 06:56:30;;;;;;;1.77;1.35;;;5.20;99.90;;;;;;4935037;29;20032;-72
2022/12/28 06:58:57;;;;;;;2.38;1.35;;;5.20;99.90;;;;;;4934667;29;20036;-70
2022/12/28 07:01:27;;;;;;;4.55;1.23;;;5.20;99.90;;;;;;4935674;29;20023;-69
2022/12/28 07:03:56;;;;;;;1.10;0.65;;;5.20;99.90;;;;;;4935141;29;20036;-71
2022/12/28 07:06:26;;;;;;;4.13;1.35;;;5.20;99.90;;;;;;4914958;29;20555;-71
2022/12/28 07:09:03;;;;;;;1.95;1.08;;;5.10;99.90;;;;;;4932370;29;20040;-71
2022/12/28 07:11:29;;;;;;;3.13;1.40;;;5.20;99.90;;;;;;4929523;29;20032;-71
2022/12/28 07:13:55;;;;;;;5.32;1.40;;;5.10;99.90;;;;;;4924821;29;20506;-72
2022/12/28 07:16:24;;;;;;;9.57;1.77;;;5.10;99.90;;;;;;4948464;23;20071;-69
2022/12/28 07:18:50;;;;;;;0.57;0.52;;;5.10;99.90;;;;;;4948821;29;20031;-69
2022/12/28 07:21:29;;;;;;;3.20;2.00;;;5.10;99.90;;;;;;4948384;29;20102;-68
2022/12/28 07:23:58;;;;;;;2.97;1.58;;;5.10;99.90;;;;;;4945059;29;20046;-69
2022/12/28 07:26:28;;;;;;;1.95;1.25;;;5.10;99.90;;;;;;4946006;28;20023;-68
2022/12/28 07:28:57;;;;;;;1.67;0.82;;;5.20;99.90;;;;;;4927905;29;20345;-68
2022/12/28 07:31:32;;;;;;;9.02;1.52;;;5.20;99.90;;;;;;4938346;29;20412;-68
2022/12/28 07:33:59;;;;;;;2.70;1.02;;;5.20;99.90;;;;;;4936967;29;20124;-68
2022/12/28 07:36:29;;;;;;;2.65;1.30;;;5.20;99.90;;;;;;4963600;28;20062;-68
2022/12/28 07:38:55;;;;;;;1.60;1.13;;;5.20;99.90;;;;;;4938643;29;20530;-68
2022/12/28 07:41:25;;;;;;;3.20;1.65;;;5.30;99.90;;;;;;4931299;29;20035;-68
2022/12/28 07:43:51;;;;;;;4.95;1.95;;;5.30;99.90;;;;;;4931723;29;20090;-68
2022/12/28 07:46:24;;;;;;;4.07;1.85;;;5.40;99.90;;;;;;4923457;29;20648;-68
2022/12/28 07:48:50;;;;;;;2.78;1.63;;;5.30;99.90;;;;;;4940921;29;20046;-69
2022/12/28 07:51:26;;;;;;;8.05;1.10;;;5.40;99.90;;;;;;4947494;29;20027;-68
2022/12/28 07:53:53;;;;;;;1.92;1.25;;;5.40;99.90;;;;;;4944246;29;20035;-68
2022/12/28 07:56:20;;;;;;;1.52;0.55;;;5.30;99.90;;;;;;4946233;28;20035;-68
2022/12/28 07:58:56;;;;;;;2.28;1.20;;;5.30;99.90;;;;;;4945725;28;20035;-69
2022/12/28 08:01:25;;;;;;;1.55;1.00;;;5.30;99.90;;;;;;4946719;29;20089;-69
2022/12/28 08:03:57;;;;;;;3.70;1.08;;;5.30;99.90;;;;;;4944999;29;20062;-68
2022/12/28 08:06:27;;;;;;;4.13;1.33;;;5.40;99.90;;;;;;4946912;28;20043;-69
2022/12/28 08:08:57;;;;;;;0.82;0.63;;;5.40;99.90;;;;;;4944525;29;20035;-68
2022/12/28 08:11:27;;;;;;;3.92;1.15;;;5.40;99.90;;;;;;4930971;29;20086;-69
2022/12/28 08:13:55;;;;;;;1.20;0.93;;;5.40;99.90;;;;;;4931091;29;20036;-68
2022/12/28 08:16:23;;;;;;;6.15;1.17;;;5.40;99.90;;;;;;4939161;29;20036;-68
2022/12/28 08:18:49;;;;;;;2.70;1.15;;;5.50;99.90;;;;;;4946730;28;20070;-68
2022/12/28 08:21:19;;;;;;;1.83;0.93;;;5.40;99.90;;;;;;4935096;29;20024;-68
2022/12/28 08:23:45;;;;;;;1.50;0.90;;;5.40;99.90;;;;;;4942953;28;20035;-69
2022/12/28 08:26:37;;;;;;;1.35;1.23;;;5.50;99.90;;;;;;4929987;29;20035;-69
2022/12/28 08:29:08;;;;;;;3.05;1.30;;;5.50;99.90;;;;;;4927751;28;20047;-70
2022/12/28 08:31:39;;;;;;;0.90;0.75;;;5.50;99.90;;;;;;4931169;29;20045;-68
2022/12/28 08:34:07;;;;;;;2.65;1.30;;;5.50;99.90;;;;;;4936307;29;20109;-69
2022/12/28 08:36:33;;;;;;;2.00;0.88;;;5.60;99.90;;;;;;4949628;28;20031;-69
2022/12/28 08:39:00;;;;;;;1.98;1.15;;;5.70;99.90;;;;;;4941554;29;20035;-70
2022/12/28 08:41:27;;;;;;;1.17;1.08;;;5.80;99.90;;;;;;4944519;29;20379;-69
2022/12/28 08:43:54;;;;;;;1.13;0.90;;;5.80;99.90;;;;;;4938018;29;20031;-69
2022/12/28 08:46:26;;;;;;;1.98;1.23;;;5.90;99.90;;;;;;4959393;28;20035;-69
2022/12/28 08:48:55;;;;;;;3.03;0.90;;;6.00;99.90;;;;;;4964956;28;20032;-69
2022/12/28 08:51:40;;;;;;;2.83;0.93;;;6.00;99.90;;;;;;4943616;28;20039;-69
2022/12/28 08:54:07;;;;;;;6.65;1.83;;;6.10;99.90;;;;;;4953595;28;20035;-69
2022/12/28 08:56:39;;;;;;;1.80;1.10;;;6.10;99.90;;;;;;4950259;28;20387;-69
2022/12/28 08:59:05;;;;;;;4.88;0.80;;;6.10;99.90;;;;;;4939971;29;20072;-69
2022/12/28 09:01:35;;;;;;;1.27;0.88;;;6.20;99.90;;;;;;4932964;29;20039;-69
2022/12/28 09:04:01;;;;;;;2.75;1.20;;;6.20;99.90;;;;;;4932122;29;20082;-69
2022/12/28 09:06:34;;;;;;;1.70;0.77;;;6.30;99.90;;;;;;4928567;28;20036;-69
2022/12/28 09:09:02;;;;;;;2.00;1.00;;;6.40;99.90;;;;;;4922756;29;20034;-69
2022/12/28 09:11:27;;;;;;;1.80;0.65;;;6.50;99.90;;;;;;4936493;29;20555;-70
2022/12/28 09:13:53;;;;;;;1.80;0.90;;;6.60;99.90;;;;;;4930585;29;20068;-71
2022/12/28 09:16:24;;;;;;;1.85;0.65;;;6.70;99.90;;;;;;4925236;28;20067;-74
2022/12/28 09:19:00;;;;;;;0.90;0.70;;;6.80;99.90;;;;;;4941754;29;20043;-69
2022/12/28 09:21:31;;;;;;;2.33;0.93;;;6.90;99.90;;;;;;4959343;28;20114;-69
2022/12/28 09:23:57;;;;;;;1.00;0.82;;;7.00;99.90;;;;;;4929397;29;20488;-69
2022/12/28 09:26:26;;;;;;;1.98;0.80;;;7.10;99.90;;;;;;4935663;28;20082;-69
2022/12/28 09:29:01;;;;;;;0.40;0.40;;;7.20;99.90;;;;;;4923788;29;20122;-70
2022/12/28 09:31:29;;;;;;;2.28;0.60;;;7.30;99.90;;;;;;4918503;29;20646;-69
2022/12/28 09:34:01;;;;;;;5.15;0.68;;;7.40;99.90;;;;;;4938890;29;20063;-69
2022/12/28 09:36:40;;;;;;;1.33;0.90;;;7.40;99.90;;;;;;4940185;28;20550;-70
2022/12/28 09:39:13;;;;;;;1.67;0.88;;;7.50;99.90;;;;;;4914472;29;20039;-70
2022/12/28 09:42:17;;;;;;;1.65;1.05;;;7.60;99.90;;;;;;4955885;28;20078;-70
2022/12/28 09:44:55;;;;;;;0.80;0.47;;;7.70;99.90;;;;;;4948500;28;20085;-69
2022/12/28 09:47:44;;;;;;;1.25;0.82;;;7.80;99.90;;;;;;4943228;29;20031;-70
2022/12/28 09:50:17;;;;;;;0.57;0.57;;;7.90;99.90;;;;;;4935983;29;20042;-70
2022/12/28 09:53:20;;;;;;;1.58;0.65;;;8.00;99.90;;;;;;4933200;29;20661;-69
2022/12/28 09:56:02;;;;;;;0.82;0.55;;;8.30;99.90;;;;;;4928706;28;20067;-69
2022/12/28 09:58:31;;;;;;;4.63;0.88;;;8.80;99.90;;;;;;4917011;29;20032;-71
2022/12/28 10:01:02;;;;;;;2.88;0.85;;;9.40;99.90;;;;;;4930808;29;20118;-70
2022/12/28 10:03:40;;;;;;;3.75;0.70;;;9.50;99.90;;;;;;4901946;29;20067;-69
2022/12/28 10:06:26;;;;;;;2.13;1.25;;;10.10;99.90;;;;;;4939365;28;20115;-70
2022/12/28 10:08:56;;;;;;;3.15;0.60;;;10.70;99.90;;;;;;4933176;29;20060;-70
2022/12/28 10:11:28;;;;;;;4.03;0.57;;;11.00;99.90;;;;;;4942595;29;20090;-69
2022/12/28 10:13:58;;;;;;;2.90;0.85;;;11.50;99.90;;;;;;4923146;29;20401;-70
2022/12/28 10:16:30;;;;;;;7.25;0.68;;;11.90;99.90;;;;;;4909580;29;20043;-70
2022/12/28 10:18:57;;;;;;;0.65;0.50;;;11.30;99.90;;;;;;4942720;29;20126;-70
2022/12/28 10:21:26;;;;;;;0.63;0.63;;;10.50;99.90;;;;;;4948468;29;20030;-70
2022/12/28 10:23:55;;;;;;;1.77;0.70;;;9.90;99.90;;;;;;4934099;29;20039;-70
2022/12/28 10:26:21;;;;;;;0.75;0.40;;;9.60;99.90;;;;;;4942592;29;20060;-70
2022/12/28 10:28:52;;;;;;;0.60;0.50;;;9.20;99.90;;;;;;4948266;29;20043;-70
2022/12/28 10:31:35;;;;;;;1.55;1.20;;;9.10;99.90;;;;;;4942647;29;20034;-70
2022/12/28 10:34:14;;;;;;;1.42;0.60;;;9.00;99.90;;;;;;4950631;28;20035;-70
2022/12/28 10:36:40;;;;;;;3.70;0.73;;;9.10;99.90;;;;;;4946109;29;20031;-69
2022/12/28 10:39:23;;;;;;;2.85;1.25;;;9.00;99.90;;;;;;4950577;29;20039;-70
2022/12/28 10:41:48;;;;;;;0.73;0.40;;;9.20;99.90;;;;;;4947083;29;20027;-70
2022/12/28 10:44:33;;;;;;;0.30;0.20;;;9.20;99.90;;;;;;4942067;29;20364;-70
2022/12/28 10:47:03;;;;;;;0.60;0.47;;;9.30;99.90;;;;;;4938418;29;20043;-70
2022/12/28 10:49:37;;;;;;;1.17;0.70;;;9.20;99.90;;;;;;4928316;29;20559;-70
2022/12/28 10:52:14;;;;;;;22.23;2.53;;;9.20;99.90;;;;;;4938810;29;20039;-69
2022/12/28 10:54:41;;;;;;;6.80;0.52;;;9.30;99.90;;;;;;4946394;29;20144;-69
2022/12/28 10:57:18;;;;;;;1.10;0.52;;;9.10;99.90;;;;;;4952037;28;20514;-69
2022/12/28 10:59:49;;;;;;;1.13;0.85;;;9.20;99.90;;;;;;4944895;29;20046;-70
2022/12/28 11:02:23;;;;;;;0.52;0.35;;;9.20;99.90;;;;;;4942485;29;20043;-70
2022/12/28 11:04:58;;;;;;;1.48;0.57;;;9.20;99.90;;;;;;4951086;29;20392;-70
2022/12/28 11:07:44;;;;;;;0.45;0.28;;;9.40;99.90;;;;;;4937626;29;20032;-70
2022/12/28 11:10:29;;;;;;;1.83;0.70;;;9.40;99.90;;;;;;4934087;29;20027;-69
2022/12/28 11:12:58;;;;;;;1.00;0.60;;;9.30;99.90;;;;;;4940521;29;20042;-70
2022/12/28 11:15:30;;;;;;;1.73;0.82;;;9.60;99.90;;;;;;4919378;29;20126;-70
2022/12/28 11:18:12;;;;;;;1.27;0.68;;;9.70;99.90;;;;;;4944346;29;20031;-70
2022/12/28 11:20:47;;;;;;;0.63;0.30;;;10.00;99.90;;;;;;4944164;29;20066;-71
2022/12/28 11:23:25;;;;;;;1.85;0.75;;;10.30;99.90;;;;;;4922794;29;20524;-70
2022/12/28 11:25:51;;;;;;;1.30;0.40;;;10.60;99.90;;;;;;4923491;29;20058;-68
2022/12/28 11:28:21;;;;;;;0.65;0.45;;;10.10;99.90;;;;;;4920140;29;20050;-69
2022/12/28 11:30:50;;;;;;;7.07;0.80;;;10.10;99.90;;;;;;4920439;29;20046;-68
2022/12/28 11:33:34;;;;;;;1.15;0.60;;;9.90;99.90;;;;;;4924803;29;20091;-71
2022/12/28 11:36:01;;;;;;;0.70;0.38;;;9.90;99.90;;;;;;4932471;28;20036;-68
2022/12/28 11:38:43;;;;;;;0.63;0.47;;;10.00;99.90;;;;;;4957043;28;20033;-68
2022/12/28 11:41:31;;;;;;;0.15;0.15;;;9.80;99.90;;;;;;4915661;29;20028;-70
2022/12/28 11:44:03;;;;;;;4.53;1.05;;;9.70;99.90;;;;;;4926602;29;20200;-70
2022/12/28 11:46:29;;;;;;;1.60;0.77;;;9.60;99.90;;;;;;4948170;28;20075;-71
2022/12/28 11:49:04;;;;;;;6.97;0.77;;;9.70;99.90;;;;;;4944346;29;20060;-70
2022/12/28 11:51:35;;;;;;;2.58;0.85;;;9.80;99.90;;;;;;4941011;29;20031;-69
2022/12/28 11:54:23;;;;;;;0.65;0.40;;;9.90;99.90;;;;;;4944474;29;20035;-69
2022/12/28 11:56:49;;;;;;;2.17;1.00;;;9.90;99.90;;;;;;4948599;28;20035;-70
2022/12/28 11:59:33;;;;;;;1.90;1.02;;;9.90;99.90;;;;;;4947600;29;20037;-68
2022/12/28 12:02:01;;;;;;;1.25;0.73;;;9.80;99.90;;;;;;4946299;29;20028;-68
2022/12/28 12:04:30;;;;;;;6.93;1.27;;;9.80;99.90;;;;;;4948847;29;20054;-68
2022/12/28 12:07:00;;;;;;;1.33;0.60;;;9.80;99.90;;;;;;4947567;28;20049;-68
2022/12/28 12:09:37;;;;;;;2.20;0.57;;;9.70;99.90;;;;;;4937056;29;20039;-69
2022/12/28 12:12:14;;;;;;;4.68;0.30;;;9.80;99.90;;;;;;4942594;29;20037;-68
2022/12/28 12:15:09;;;;;;;1.73;0.70;;;9.90;99.90;;;;;;4937678;29;20041;-71
2022/12/28 12:17:47;;;;;;;0.45;0.30;;;9.90;99.90;;;;;;4943536;29;20524;-69
2022/12/28 12:20:43;;;;;;;0.57;0.38;;;10.00;99.90;;;;;;4941199;29;20032;-68
2022/12/28 12:23:46;;;;;;;2.13;0.65;;;10.10;99.90;;;;;;4917603;29;20035;-69
2022/12/28 12:26:45;;;;;;;0.70;0.28;;;10.10;99.90;;;;;;4935011;28;20063;-68
2022/12/28 12:29:21;;;;;;;0.38;0.30;;;10.20;99.90;;;;;;4936924;29;20118;-71
2022/12/28 12:32:02;;;;;;;1.40;0.52;;;10.30;99.90;;;;;;4939333;29;20051;-69
2022/12/28 12:35:04;;;;;;;0.55;0.40;;;10.30;99.90;;;;;;4936311;29;20057;-71
2022/12/28 12:37:55;;;;;;;1.65;0.52;;;10.10;99.90;;;;;;4927777;29;20040;-69
2022/12/28 12:40:36;;;;;;;2.75;0.55;;;10.10;99.90;;;;;;4931294;29;20539;-68
2022/12/28 12:43:28;;;;;;;0.98;0.85;;;10.00;99.90;;;;;;4925934;29;20055;-69
2022/12/28 12:45:56;;;;;;;0.65;0.55;;;10.10;99.90;;;;;;4930671;29;20059;-71
2022/12/28 12:48:41;;;;;;;0.77;0.45;;;10.10;99.90;;;;;;4939360;29;20486;-71
2022/12/28 12:51:24;;;;;;;1.58;0.60;;;10.00;99.90;;;;;;4938973;29;20046;-69
2022/12/28 12:54:27;;;;;;;1.08;0.63;;;10.10;99.90;;;;;;4941883;29;20118;-70
2022/12/28 12:57:07;;;;;;;1.77;0.77;;;10.10;99.90;;;;;;4959531;28;20039;-68
2022/12/28 13:00:00;;;;;;;2.17;0.50;;;10.20;99.90;;;;;;4948198;29;20447;-69
2022/12/28 13:03:04;;;;;;;1.35;0.75;;;10.20;99.90;;;;;;4941958;29;20121;-71
2022/12/28 13:05:30;;;;;;;2.55;0.50;;;10.20;99.90;;;;;;4902093;29;20047;-71
2022/12/28 13:07:59;;;;;;;1.00;0.82;;;10.20;99.90;;;;;;4935748;29;20581;-71
2022/12/28 13:10:34;;;;;;;4.18;0.65;;;10.00;99.90;;;;;;4923151;29;20044;-70
2022/12/28 13:13:02;;;;;;;5.72;0.68;;;10.10;99.90;;;;;;4923828;29;20034;-71
2022/12/28 13:15:29;;;;;;;1.48;0.30;;;10.10;99.90;;;;;;4952522;23;20034;-75
2022/12/28 13:18:14;;;;;;;2.28;0.50;;;10.10;99.90;;;;;;4941282;29;20027;-75
2022/12/28 13:20:40;;;;;;;1.40;0.50;;;10.00;99.90;;;;;;4949002;28;20028;-74
2022/12/28 13:23:15;;;;;;;0.57;0.30;;;10.10;99.90;;;;;;4944209;28;20090;-75
2022/12/28 13:25:47;;;;;;;0.98;0.57;;;10.20;99.90;;;;;;4948273;28;20110;-75
2022/12/28 13:28:44;;;;;;;5.63;0.75;;;10.10;99.90;;;;;;4943364;29;20028;-75
2022/12/28 13:31:21;;;;;;;0.82;0.43;;;10.10;99.90;;;;;;4948005;29;20102;-75
2022/12/28 13:33:55;;;;;;;2.47;0.45;;;10.10;99.90;;;;;;4942945;29;20045;-74
2022/12/28 13:36:21;;;;;;;0.70;0.50;;;10.00;99.90;;;;;;4948463;28;20114;-75
2022/12/28 13:39:14;;;;;;;0.25;0.25;;;10.00;99.90;;;;;;4943044;29;20122;-75
2022/12/28 13:41:54;;;;;;;1.23;0.40;;;10.00;99.90;;;;;;4947404;29;20034;-75
2022/12/28 13:44:51;;;;;;;2.15;0.77;;;10.00;99.90;;;;;;4931757;29;20531;-75
2022/12/28 13:47:32;;;;;;;0.50;0.30;;;10.00;99.90;;;;;;4940376;29;20031;-75
2022/12/28 13:50:09;;;;;;;0.30;0.30;;;10.10;99.90;;;;;;4951475;29;20035;-75
2022/12/28 13:52:46;;;;;;;0.75;0.43;;;10.10;99.90;;;;;;4939616;29;20103;-75
2022/12/28 13:55:40;;;;;;;0.88;0.65;;;10.00;99.90;;;;;;4913838;29;20040;-75